Time;durP1;ratioP1;P1;durP2;ratioP2;P2;SDS_P1;SDS_P2;PMS_P1;PMS_P2;Temp;Humidity;BMP_temperature;BMP_pressure;BME280_temperature;BME280_humidity;BME280_pressure;Samples;Min_cycle;Max_cycle;Signal;HPM_P1;HPM_P2
2022/10/30 00:05:50;;;;;;;6.80;1.10;;;11.90;95.90;;;;;;20961661;28;20066;-63
2022/10/30 00:15:53;;;;;;;7.53;0.88;;;12.10;95.20;;;;;;20961492;28;20090;-58
2022/10/30 00:25:55;;;;;;;5.63;0.93;;;12.30;94.80;;;;;;20960008;28;20032;-62
2022/10/30 00:36:00;;;;;;;7.53;1.10;;;12.20;95.00;;;;;;20959530;28;20037;-63
2022/10/30 00:46:18;;;;;;;6.82;1.13;;;12.20;94.70;;;;;;20985628;28;20374;-63
2022/10/30 00:56:23;;;;;;;;;;;12.20;94.60;;;;;;21041975;28;20032;-59
2022/10/30 01:06:27;;;;;;;8.60;1.10;;;12.20;94.60;;;;;;21040366;28;19916;-63
2022/10/30 01:16:53;;;;;;;5.03;0.90;;;12.30;94.70;;;;;;21057151;28;20036;-67
2022/10/30 01:27:16;;;;;;;7.65;1.00;;;12.20;94.70;;;;;;21034087;28;20081;-67
2022/10/30 01:37:32;;;;;;;7.60;1.30;;;12.20;94.80;;;;;;21038565;28;20504;-58
2022/10/30 01:47:58;;;;;;;9.35;1.42;;;12.00;94.90;;;;;;20998428;28;20074;-68
2022/10/30 01:58:13;;;;;;;7.28;1.00;;;12.20;94.30;;;;;;20953274;28;20076;-59
2022/10/30 02:08:16;;;;;;;10.68;1.33;;;12.20;94.50;;;;;;20938254;28;20036;-58
2022/10/30 02:18:19;;;;;;;7.75;1.15;;;12.10;94.80;;;;;;20953108;28;20132;-68
2022/10/30 02:28:22;;;;;;;6.28;1.10;;;12.00;95.10;;;;;;20952532;28;20090;-58
2022/10/30 02:38:24;;;;;;;7.35;1.10;;;11.80;95.00;;;;;;20935576;28;20044;-67
2022/10/30 02:48:29;;;;;;;9.00;1.17;;;12.00;94.80;;;;;;20998513;28;20074;-58
2022/10/30 02:58:32;;;;;;;4.82;1.15;;;12.00;95.20;;;;;;21034887;28;20058;-59
2022/10/30 03:08:36;;;;;;;6.25;1.23;;;12.00;95.20;;;;;;21050705;28;20032;-68
2022/10/30 03:18:41;;;;;;;6.00;1.20;;;11.90;95.00;;;;;;21050145;28;20535;-59
2022/10/30 03:28:46;;;;;;;8.90;1.02;;;11.90;94.70;;;;;;21031982;28;20062;-68
2022/10/30 03:38:48;;;;;;;4.60;0.68;;;11.90;95.10;;;;;;21047581;28;20028;-68
2022/10/30 03:48:55;;;;;;;7.63;1.23;;;11.80;95.00;;;;;;21013285;28;20056;-68
2022/10/30 03:58:57;;;;;;;6.32;1.10;;;11.70;95.50;;;;;;20945516;28;20110;-58
2022/10/30 04:09:01;;;;;;;7.38;1.20;;;11.60;95.30;;;;;;20961900;28;20036;-67
2022/10/30 04:19:09;;;;;;;10.23;1.20;;;11.90;94.90;;;;;;20944377;28;20083;-59
2022/10/30 04:29:15;;;;;;;6.15;1.10;;;12.00;95.00;;;;;;20954095;28;20047;-59
2022/10/30 04:39:19;;;;;;;7.40;1.00;;;11.90;95.50;;;;;;20959216;28;20040;-58
2022/10/30 04:49:26;;;;;;;6.63;0.90;;;11.80;95.10;;;;;;21013155;28;20044;-59
2022/10/30 04:59:32;;;;;;;7.05;1.65;;;11.80;95.30;;;;;;21041486;28;20036;-58
2022/10/30 05:09:38;;;;;;;9.07;1.50;;;11.70;95.00;;;;;;21024044;28;20481;-58
2022/10/30 05:19:40;;;;;;;7.10;1.00;;;11.60;95.80;;;;;;21039594;28;20058;-59
2022/10/30 05:29:43;;;;;;;3.47;0.80;;;11.80;94.80;;;;;;21052338;28;20036;-70
2022/10/30 05:39:46;;;;;;;7.07;1.10;;;11.80;95.00;;;;;;21053009;28;20093;-61
2022/10/30 05:50:01;;;;;;;5.13;1.02;;;11.60;95.70;;;;;;21053178;28;20055;-61
2022/10/30 06:00:05;;;;;;;10.95;1.05;;;11.70;95.10;;;;;;21053061;28;20040;-70
2022/10/30 06:10:17;;;;;;;5.60;0.95;;;11.60;95.10;;;;;;21052470;28;20105;-66
2022/10/30 06:20:43;;;;;;;6.30;1.08;;;11.60;95.30;;;;;;21043106;28;20085;-69
2022/10/30 06:31:06;;;;;;;7.78;1.05;;;11.90;95.20;;;;;;21006347;28;20132;-61
2022/10/30 06:41:09;;;;;;;9.27;1.17;;;12.00;95.80;;;;;;21004386;28;20033;-67
2022/10/30 06:51:38;;;;;;;7.55;1.25;;;12.10;96.20;;;;;;20922610;28;20036;-59
2022/10/30 07:01:41;;;;;;;5.88;0.90;;;12.30;96.50;;;;;;20943817;28;20400;-59
2022/10/30 07:11:52;;;;;;;6.18;1.00;;;12.70;96.90;;;;;;20981181;28;20025;-59
2022/10/30 07:22:13;;;;;;;6.28;1.27;;;13.20;96.00;;;;;;20988123;28;20058;-59
2022/10/30 07:32:20;;;;;;;13.30;1.20;;;14.00;94.10;;;;;;20979899;28;20082;-58
2022/10/30 07:42:47;;;;;;;8.00;1.08;;;15.10;93.10;;;;;;20985354;28;20036;-59
2022/10/30 07:53:09;;;;;;;4.63;1.00;;;15.90;91.80;;;;;;21061829;28;20032;-57
2022/10/30 08:03:13;;;;;;;9.75;0.90;;;16.50;91.60;;;;;;21046987;28;20547;-58
2022/10/30 08:13:26;;;;;;;6.32;1.38;;;17.10;91.20;;;;;;21063637;28;20061;-59
2022/10/30 08:23:29;;;;;;;6.45;1.42;;;18.10;90.90;;;;;;21039707;28;20097;-59
2022/10/30 08:33:35;;;;;;;7.28;1.00;;;19.10;90.40;;;;;;21062325;28;20036;-57
2022/10/30 08:43:57;;;;;;;6.57;1.27;;;20.20;90.90;;;;;;21061024;28;20036;-59
2022/10/30 08:54:09;;;;;;;6.00;1.17;;;21.20;84.80;;;;;;21058527;28;20086;-58
2022/10/30 09:04:12;;;;;;;6.28;1.30;;;21.80;82.50;;;;;;21057336;28;20044;-59
2022/10/30 09:14:54;;;;;;;6.93;1.10;;;22.30;83.70;;;;;;20799592;28;20087;-59
2022/10/30 09:24:57;;;;;;;7.90;1.42;;;22.50;85.70;;;;;;20803704;28;20046;-58
2022/10/30 09:35:22;;;;;;;8.00;1.05;;;22.80;86.20;;;;;;20727037;28;20041;-58
2022/10/30 09:45:45;;;;;;;7.82;1.40;;;23.30;84.00;;;;;;20855609;28;20099;-58
2022/10/30 09:56:14;;;;;;;5.18;1.30;;;23.60;84.10;;;;;;20794833;28;20491;-58
2022/10/30 10:06:19;;;;;;;5.68;1.00;;;23.70;80.80;;;;;;20832555;28;20052;-59
2022/10/30 10:16:39;;;;;;;4.97;1.42;;;23.80;78.00;;;;;;20968094;28;20040;-59
2022/10/30 10:26:49;;;;;;;7.50;1.10;;;23.90;81.00;;;;;;20981339;28;20037;-57
2022/10/30 10:37:01;;;;;;;6.07;1.17;;;24.10;82.50;;;;;;20984194;28;20411;-57
2022/10/30 10:47:33;;;;;;;6.55;1.50;;;24.40;80.70;;;;;;21020866;28;20097;-59
2022/10/30 10:57:40;;;;;;;8.73;1.40;;;24.50;78.00;;;;;;21069469;28;20469;-59
2022/10/30 11:07:48;;;;;;;6.85;1.52;;;24.40;78.30;;;;;;21063823;28;20028;-59
2022/10/30 11:18:06;;;;;;;5.00;1.65;;;24.30;78.20;;;;;;21064587;28;20078;-59
2022/10/30 11:28:25;;;;;;;;;;;24.20;76.30;;;;;;21061685;28;20040;-59
2022/10/30 11:38:28;;;;;;;5.00;1.23;;;24.10;77.70;;;;;;21051232;28;19912;-61
2022/10/30 11:48:32;;;;;;;8.63;1.60;;;24.00;79.60;;;;;;21058973;28;20066;-58
2022/10/30 11:58:41;;;;;;;10.00;1.30;;;23.80;81.50;;;;;;21079827;28;20044;-59
2022/10/30 12:09:11;;;;;;;4.50;1.20;;;23.90;83.30;;;;;;21065700;28;20031;-59
2022/10/30 12:19:17;;;;;;;6.97;1.13;;;23.90;80.00;;;;;;21071480;28;20039;-59
2022/10/30 12:29:25;;;;;;;6.38;1.48;;;23.70;74.00;;;;;;21062031;28;20028;-59
2022/10/30 12:39:55;;;;;;;6.03;1.40;;;23.50;76.60;;;;;;21059041;28;20036;-59
2022/10/30 12:50:02;;;;;;;4.05;1.10;;;23.50;79.40;;;;;;21053765;28;20036;-59
2022/10/30 13:00:14;;;;;;;5.03;1.05;;;23.30;78.10;;;;;;21058977;28;20386;-58
2022/10/30 13:10:38;;;;;;;5.53;1.23;;;23.10;76.40;;;;;;21056329;28;20058;-60
2022/10/30 13:20:44;;;;;;;6.88;1.00;;;22.60;79.60;;;;;;21066230;28;20031;-59
2022/10/30 13:31:08;;;;;;;4.13;0.93;;;22.00;78.30;;;;;;21060761;28;20024;-59
2022/10/30 13:41:30;;;;;;;7.28;1.40;;;21.30;78.10;;;;;;21055794;28;20511;-59
2022/10/30 13:51:59;;;;;;;7.72;1.15;;;20.80;77.60;;;;;;21048246;28;20385;-59
2022/10/30 14:02:19;;;;;;;4.10;1.08;;;20.30;77.60;;;;;;21049096;28;20097;-64
2022/10/30 14:12:51;;;;;;;6.40;1.10;;;20.00;80.00;;;;;;21052638;28;20032;-59
2022/10/30 14:23:18;;;;;;;7.75;1.20;;;19.60;82.30;;;;;;21054950;28;20097;-59
2022/10/30 14:33:46;;;;;;;7.20;1.30;;;19.20;83.60;;;;;;21050451;28;20036;-58
2022/10/30 14:44:18;;;;;;;8.17;1.10;;;18.80;85.10;;;;;;21048227;28;20082;-58
2022/10/30 14:54:20;;;;;;;6.43;1.33;;;18.60;90.40;;;;;;20967499;28;20032;-58
2022/10/30 15:04:48;;;;;;;11.57;1.95;;;18.30;90.70;;;;;;20968337;28;20094;-58
2022/10/30 15:15:02;;;;;;;11.60;1.65;;;17.70;90.90;;;;;;20976764;28;20094;-65
2022/10/30 15:25:12;;;;;;;12.13;1.75;;;17.00;91.40;;;;;;20991357;28;20127;-58
2022/10/30 15:35:16;;;;;;;10.15;1.40;;;16.40;90.90;;;;;;20985065;28;20469;-57
2022/10/30 15:45:28;;;;;;;11.93;1.85;;;15.80;91.80;;;;;;21000889;28;20081;-64
2022/10/30 15:55:32;;;;;;;8.93;1.85;;;15.30;91.40;;;;;;21061545;28;20044;-55
2022/10/30 16:05:35;;;;;;;13.57;1.98;;;14.80;92.30;;;;;;21061906;28;20123;-58
2022/10/30 16:15:39;;;;;;;15.40;1.77;;;14.40;92.00;;;;;;21060407;28;20228;-58
2022/10/30 16:25:42;;;;;;;8.57;1.85;;;14.00;92.10;;;;;;21074490;28;20366;-64
2022/10/30 16:35:47;;;;;;;13.15;1.58;;;13.60;91.80;;;;;;21062423;28;20101;-57
2022/10/30 16:45:50;;;;;;;11.70;1.60;;;13.40;91.70;;;;;;21053216;28;20033;-67
2022/10/30 16:55:56;;;;;;;11.45;1.95;;;13.20;91.60;;;;;;20992107;28;20082;-61
2022/10/30 17:06:06;;;;;;;11.25;1.40;;;13.10;91.60;;;;;;20999392;28;20040;-64
2022/10/30 17:16:21;;;;;;;18.33;1.95;;;13.00;91.10;;;;;;21000649;28;20563;-60
2022/10/30 17:26:27;;;;;;;12.18;1.90;;;13.00;91.50;;;;;;20990000;28;20036;-60
2022/10/30 17:36:30;;;;;;;10.07;1.85;;;12.90;91.40;;;;;;20972819;28;20086;-57
2022/10/30 17:46:33;;;;;;;10.32;1.52;;;12.80;91.70;;;;;;21022239;28;20085;-58
2022/10/30 17:56:36;;;;;;;13.73;1.70;;;12.70;91.80;;;;;;21054562;28;20040;-64
2022/10/30 18:06:42;;;;;;;10.50;1.63;;;12.70;91.70;;;;;;21052473;28;20129;-64
2022/10/30 18:16:44;;;;;;;13.63;2.00;;;12.70;91.80;;;;;;21054744;28;20455;-64
2022/10/30 18:26:47;;;;;;;9.93;1.40;;;12.60;91.70;;;;;;21057108;28;20058;-62
2022/10/30 18:36:49;;;;;;;8.50;1.20;;;12.40;91.90;;;;;;21051615;28;20040;-47
2022/10/30 18:46:52;;;;;;;15.20;1.88;;;12.40;92.00;;;;;;21067809;28;20031;-49
2022/10/30 18:56:54;;;;;;;9.40;1.52;;;12.30;91.90;;;;;;21082124;28;20032;-46
2022/10/30 19:06:59;;;;;;;9.93;1.27;;;12.30;92.40;;;;;;21071553;28;20040;-59
2022/10/30 19:17:02;;;;;;;12.82;1.70;;;12.30;92.40;;;;;;21077372;28;20072;-62
2022/10/30 19:27:04;;;;;;;8.95;1.25;;;12.30;92.30;;;;;;21080717;28;20381;-58
2022/10/30 19:37:08;;;;;;;14.07;2.33;;;12.20;93.00;;;;;;21074509;28;20081;-65
2022/10/30 19:47:11;;;;;;;12.80;1.58;;;12.00;92.90;;;;;;21072014;28;20481;-64
2022/10/30 19:57:14;;;;;;;13.70;1.38;;;11.90;92.70;;;;;;21077361;28;20040;-66
2022/10/30 20:07:17;;;;;;;13.05;1.67;;;11.80;93.30;;;;;;21068896;28;20032;-62
2022/10/30 20:17:21;;;;;;;8.85;1.58;;;11.70;93.50;;;;;;21065510;28;20370;-58
2022/10/30 20:27:25;;;;;;;12.60;1.95;;;11.70;93.50;;;;;;21077627;28;20088;-56
2022/10/30 20:37:28;;;;;;;8.52;1.50;;;11.70;93.20;;;;;;21081064;28;20032;-50
2022/10/30 20:47:30;;;;;;;12.55;1.73;;;11.60;93.20;;;;;;21061065;28;20485;-57
2022/10/30 20:57:33;;;;;;;9.73;1.77;;;11.60;93.50;;;;;;21058205;28;20085;-53
2022/10/30 21:07:37;;;;;;;11.10;1.25;;;11.50;93.60;;;;;;21056941;28;20040;-61
2022/10/30 21:17:41;;;;;;;10.40;1.35;;;11.60;93.40;;;;;;21077722;28;20027;-61
2022/10/30 21:27:44;;;;;;;9.75;1.48;;;11.60;93.80;;;;;;21056230;28;20583;-61
2022/10/30 21:37:47;;;;;;;9.13;1.70;;;11.50;93.40;;;;;;21054101;28;20477;-71
2022/10/30 21:47:51;;;;;;;6.00;1.13;;;11.50;93.70;;;;;;21037414;28;20037;-60
2022/10/30 21:57:54;;;;;;;6.63;1.23;;;11.30;94.00;;;;;;20969270;28;20051;-58
2022/10/30 22:07:57;;;;;;;6.75;1.40;;;11.20;94.30;;;;;;20970131;28;20112;-58
2022/10/30 22:18:00;;;;;;;9.90;1.38;;;11.30;94.10;;;;;;20973769;28;20028;-58
2022/10/30 22:28:03;;;;;;;9.13;1.25;;;11.30;94.00;;;;;;20973321;28;20032;-59
2022/10/30 22:38:05;;;;;;;7.53;1.20;;;11.30;94.00;;;;;;20968974;28;20086;-53
2022/10/30 22:48:08;;;;;;;8.50;1.13;;;11.30;94.00;;;;;;20978330;28;20498;-60
2022/10/30 22:58:10;;;;;;;9.90;1.30;;;11.30;94.00;;;;;;20974383;28;20028;-62
2022/10/30 23:08:14;;;;;;;7.32;1.35;;;11.40;93.60;;;;;;20968279;28;20037;-62
2022/10/30 23:18:16;;;;;;;12.15;1.30;;;11.30;93.80;;;;;;20974258;28;20094;-60
2022/10/30 23:28:19;;;;;;;6.70;1.15;;;11.20;94.40;;;;;;20971090;28;20086;-60
2022/10/30 23:38:21;;;;;;;11.98;1.48;;;11.20;94.10;;;;;;20979843;28;20028;-64
2022/10/30 23:48:24;;;;;;;6.70;1.20;;;11.10;94.00;;;;;;21024750;28;20120;-68
2022/10/30 23:58:27;;;;;;;8.07;1.25;;;11.10;94.10;;;;;;21055548;28;20093;-59
